Time;durP1;ratioP1;P1;durP2;ratioP2;P2;SDS_P1;SDS_P2;PMS_P1;PMS_P2;Temp;Humidity;BMP_temperature;BMP_pressure;BME280_temperature;BME280_humidity;BME280_pressure;Samples;Min_cycle;Max_cycle;Signal;HPM_P1;HPM_P2
2021/06/13 00:02:23;;;;;;;8.88;4.40;;;;;;;13.59;75.55;99792.91;153922;1101;103195;-77
2021/06/13 00:05:27;;;;;;;6.15;4.48;;;;;;;13.57;75.92;99792.27;153952;1097;103137;-79
2021/06/13 00:08:32;;;;;;;7.83;4.23;;;;;;;13.52;75.77;99794.66;153944;1101;103285;-77
2021/06/13 00:11:37;;;;;;;7.15;3.80;;;;;;;13.45;75.28;99804.44;153959;1096;103196;-77
2021/06/13 00:14:41;;;;;;;6.43;3.50;;;;;;;13.38;74.76;99806.20;153959;1101;103146;-76
2021/06/13 00:17:46;;;;;;;6.10;3.33;;;;;;;13.26;74.95;99811.97;153897;1101;103190;-76
2021/06/13 00:20:53;;;;;;;6.63;3.95;;;;;;;13.13;74.48;99799.18;153955;1097;103192;-76
2021/06/13 00:23:58;;;;;;;11.07;3.60;;;;;;;13.03;74.61;99803.11;153974;1096;103192;-77
2021/06/13 00:27:02;;;;;;;4.55;2.80;;;;;;;12.90;74.81;99801.88;153973;1101;103221;-77
2021/06/13 00:30:11;;;;;;;5.43;2.95;;;;;;;12.87;74.58;99812.94;153911;1095;103197;-78
2021/06/13 00:33:15;;;;;;;8.50;3.87;;;;;;;12.85;74.55;99814.14;153941;1101;103171;-76
2021/06/13 00:36:21;;;;;;;4.65;3.05;;;;;;;12.87;73.85;99812.94;153968;1097;103142;-77
2021/06/13 00:39:26;;;;;;;6.60;3.48;;;;;;;12.88;74.08;99814.62;153968;1101;103133;-77
2021/06/13 00:42:37;;;;;;;6.43;2.97;;;;;;;12.82;74.32;99814.48;153966;1097;103570;-78
2021/06/13 00:45:42;;;;;;;6.03;2.63;;;;;;;12.77;73.51;99810.50;153974;1096;103157;-77
2021/06/13 00:48:47;;;;;;;5.77;2.80;;;;;;;12.72;74.47;99815.58;153941;1101;103204;-76
2021/06/13 00:51:52;;;;;;;5.18;2.98;;;;;;;12.72;73.76;99814.72;153927;1101;103195;-76
2021/06/13 00:54:57;;;;;;;6.23;3.28;;;;;;;12.67;73.90;99817.12;154011;1101;103261;-76
2021/06/13 00:58:02;;;;;;;7.23;3.20;;;;;;;12.59;74.27;99809.97;154006;1101;103218;-77
2021/06/13 01:01:07;;;;;;;5.23;2.70;;;;;;;12.50;74.34;99817.20;153990;1096;103195;-77
2021/06/13 01:04:14;;;;;;;6.38;2.80;;;;;;;12.48;73.91;99813.88;153919;1101;103579;-76
2021/06/13 01:07:35;;;;;;;8.63;3.20;;;;;;;12.49;73.81;99810.20;153925;1101;103195;-76
2021/06/13 01:10:55;;;;;;;7.65;3.43;;;;;;;12.52;73.42;99817.86;153980;1094;103234;-76
2021/06/13 01:14:06;;;;;;;5.23;3.23;;;;;;;12.51;73.49;99824.23;153964;1097;103221;-78
2021/06/13 01:17:19;;;;;;;5.97;3.03;;;;;;;12.45;74.47;99818.74;153948;1101;103249;-76
2021/06/13 01:20:26;;;;;;;5.73;2.90;;;;;;;12.40;73.53;99816.61;153998;1101;103193;-76
2021/06/13 01:24:10;;;;;;;5.40;2.63;;;;;;;12.37;73.73;99819.63;154060;1095;103133;-78
2021/06/13 01:27:28;;;;;;;6.35;2.60;;;;;;;12.37;73.71;99825.83;153984;1101;103289;-77
2021/06/13 01:30:36;;;;;;;8.40;2.87;;;;;;;12.36;73.22;99824.14;154099;1097;103202;-76
2021/06/13 01:33:42;;;;;;;5.20;2.73;;;;;;;12.31;73.20;99817.66;153999;1101;103152;-76
2021/06/13 01:36:50;;;;;;;6.30;2.40;;;;;;;12.27;73.38;99816.34;154044;1095;103201;-76
2021/06/13 01:39:59;;;;;;;5.58;2.65;;;;;;;12.25;73.78;99819.18;154041;1101;103193;-77
2021/06/13 01:43:05;;;;;;;4.93;2.58;;;;;;;12.23;73.09;99813.17;154067;1095;103692;-77
2021/06/13 01:46:12;;;;;;;7.43;3.68;;;;;;;12.25;73.71;99815.68;154087;1101;103148;-77
2021/06/13 01:49:19;;;;;;;6.30;2.80;;;;;;;12.24;73.39;99819.34;153965;1097;103107;-76
2021/06/13 01:52:28;;;;;;;8.17;2.70;;;;;;;12.18;73.22;99813.71;154025;1097;103244;-76
2021/06/13 01:55:34;;;;;;;6.25;3.03;;;;;;;12.16;73.78;99815.73;154152;1096;103165;-77
2021/06/13 01:58:42;;;;;;;4.93;2.28;;;;;;;12.14;73.62;99814.22;154048;1095;103384;-77
2021/06/13 02:02:00;;;;;;;5.17;2.20;;;;;;;12.09;73.70;99814.75;154053;1097;103189;-77
2021/06/13 02:05:11;;;;;;;7.13;3.03;;;;;;;12.09;73.50;99819.27;153969;1096;103109;-76
2021/06/13 02:08:17;;;;;;;7.10;3.10;;;;;;;12.12;74.16;99821.58;154200;1101;103196;-77
2021/06/13 02:11:29;;;;;;;7.70;3.10;;;;;;;12.11;73.45;99823.43;154019;1096;103123;-76
2021/06/13 02:14:35;;;;;;;8.75;3.10;;;;;;;12.11;73.55;99834.13;154032;1096;103250;-77
2021/06/13 02:17:46;;;;;;;5.47;2.73;;;;;;;12.08;73.91;99834.46;154010;1096;103113;-76
2021/06/13 02:20:52;;;;;;;6.47;2.33;;;;;;;12.06;73.71;99838.33;153993;1101;103188;-76
2021/06/13 02:23:57;;;;;;;6.05;3.20;;;;;;;12.04;73.38;99841.16;154034;1101;103182;-77
2021/06/13 02:27:04;;;;;;;6.27;3.23;;;;;;;12.00;74.86;99841.70;154014;1095;103133;-76
2021/06/13 02:30:12;;;;;;;5.80;3.37;;;;;;;11.96;73.76;99844.70;154016;1101;103656;-76
2021/06/13 02:33:18;;;;;;;5.73;3.00;;;;;;;11.93;73.99;99852.23;154043;1097;103187;-77
2021/06/13 02:36:24;;;;;;;6.40;3.10;;;;;;;11.92;73.66;99856.75;154037;1097;103219;-77
2021/06/13 02:39:34;;;;;;;4.73;3.00;;;;;;;12.03;73.18;99866.26;153996;1101;103118;-76
2021/06/13 02:42:40;;;;;;;5.67;2.90;;;;;;;12.05;73.98;99874.08;154016;1094;103203;-76
2021/06/13 02:45:48;;;;;;;5.57;2.93;;;;;;;12.04;73.17;99859.88;153966;1097;103266;-76
2021/06/13 02:48:53;;;;;;;5.40;2.93;;;;;;;12.03;74.28;99871.60;154115;1096;103210;-77
2021/06/13 02:52:09;;;;;;;9.35;3.20;;;;;;;12.00;73.85;99865.77;154084;1101;103224;-76
2021/06/13 02:55:19;;;;;;;4.58;2.85;;;;;;;11.98;73.46;99871.28;154008;1101;103129;-76
2021/06/13 02:58:38;;;;;;;5.65;2.50;;;;;;;12.04;73.91;99875.10;154152;1096;103198;-76
2021/06/13 03:01:48;;;;;;;9.07;2.97;;;;;;;12.07;73.66;99885.47;154131;1095;103134;-76
2021/06/13 03:04:54;;;;;;;6.40;3.00;;;;;;;12.11;73.96;99887.62;154155;1095;103227;-75
2021/06/13 03:08:00;;;;;;;6.20;3.10;;;;;;;12.12;73.78;99888.44;154077;1096;103195;-77
2021/06/13 03:11:06;;;;;;;5.78;3.13;;;;;;;12.15;73.79;99898.81;154053;1101;103227;-76
2021/06/13 03:14:11;;;;;;;7.15;3.10;;;;;;;12.20;73.20;99895.60;154107;1097;103131;-77
2021/06/13 03:17:18;;;;;;;6.45;2.28;;;;;;;12.31;73.10;99900.59;154139;1101;103274;-77
2021/06/13 03:20:24;;;;;;;8.10;3.00;;;;;;;12.41;73.52;99908.41;154077;1096;103218;-77
2021/06/13 03:23:33;;;;;;;4.20;2.80;;;;;;;12.40;72.85;99896.05;154036;1095;103700;-76
2021/06/13 03:26:40;;;;;;;6.53;3.83;;;;;;;12.46;72.96;99896.17;154085;1101;103202;-77
2021/06/13 03:29:49;;;;;;;8.73;3.10;;;;;;;12.48;73.10;99904.86;154099;1101;103194;-76
2021/06/13 03:32:55;;;;;;;4.53;3.00;;;;;;;12.47;73.39;99913.05;153980;1096;103222;-77
2021/06/13 03:36:02;;;;;;;5.73;2.70;;;;;;;12.53;73.77;99917.73;153986;1097;103132;-76
2021/06/13 03:39:08;;;;;;;4.80;3.30;;;;;;;12.60;73.75;99926.72;153936;1101;103216;-78
2021/06/13 03:42:16;;;;;;;4.63;3.03;;;;;;;12.74;73.11;99925.14;154019;1095;103195;-76
2021/06/13 03:45:22;;;;;;;4.68;2.95;;;;;;;12.85;73.18;99924.75;154099;1101;103148;-76
2021/06/13 03:48:28;;;;;;;7.70;3.38;;;;;;;13.00;72.99;99930.19;153981;1101;103296;-76
2021/06/13 03:51:33;;;;;;;6.20;2.90;;;;;;;13.15;73.01;99940.98;153999;1101;103131;-79
2021/06/13 03:54:39;;;;;;;6.40;2.90;;;;;;;13.29;72.65;99937.52;153967;1101;103173;-77
2021/06/13 03:57:49;;;;;;;7.70;3.10;;;;;;;13.41;72.39;99945.19;153929;1101;103209;-76
2021/06/13 04:00:55;;;;;;;5.28;3.08;;;;;;;13.58;72.16;99945.89;153992;1101;103187;-76
2021/06/13 04:04:01;;;;;;;7.75;3.08;;;;;;;13.74;71.65;99949.27;154117;1101;103745;-77
2021/06/13 04:07:09;;;;;;;5.73;3.15;;;;;;;13.79;71.47;99950.58;154077;1097;103170;-77
2021/06/13 04:10:16;;;;;;;4.00;2.60;;;;;;;13.84;71.49;99948.19;153955;1097;103139;-77
2021/06/13 04:13:22;;;;;;;5.78;2.50;;;;;;;13.90;70.69;99942.09;153971;1097;103201;-76
2021/06/13 04:16:27;;;;;;;6.23;2.77;;;;;;;13.98;71.06;99954.59;154022;1101;103140;-78
2021/06/13 04:19:33;;;;;;;5.93;2.87;;;;;;;14.05;70.44;99945.63;154022;1101;103228;-76
2021/06/13 04:22:40;;;;;;;7.10;3.43;;;;;;;14.16;70.35;99943.50;154006;1097;103177;-77
2021/06/13 04:25:46;;;;;;;5.50;2.93;;;;;;;14.36;70.20;99952.68;154057;1096;103131;-77
2021/06/13 04:28:52;;;;;;;5.70;2.80;;;;;;;14.37;69.99;99951.64;154038;1101;103598;-76
2021/06/13 04:31:57;;;;;;;6.10;2.53;;;;;;;14.46;69.23;99953.22;154031;1101;103133;-77
2021/06/13 04:35:02;;;;;;;5.03;2.70;;;;;;;14.43;69.46;99942.84;153987;1101;103250;-77
2021/06/13 04:38:07;;;;;;;7.98;2.53;;;;;;;14.65;69.87;99959.09;153999;1101;103221;-75
2021/06/13 04:41:13;;;;;;;8.80;2.88;;;;;;;14.69;68.56;99955.00;154008;1096;103503;-76
2021/06/13 04:44:18;;;;;;;4.13;2.60;;;;;;;14.57;67.69;99960.02;154014;1095;103227;-77
2021/06/13 04:47:23;;;;;;;6.40;2.70;;;;;;;14.49;67.30;99966.29;154129;1096;103213;-77
2021/06/13 04:50:29;;;;;;;3.93;2.57;;;;;;;14.56;68.22;99977.11;153990;1095;103288;-77
2021/06/13 04:54:07;;;;;;;8.37;2.60;;;;;;;14.71;68.95;99967.22;154060;1101;103237;-77
2021/06/13 04:57:34;;;;;;;4.83;2.03;;;;;;;15.07;68.84;99973.65;153917;1101;103222;-77
2021/06/13 05:00:39;;;;;;;4.65;2.35;;;;;;;15.09;67.25;99972.42;153996;1094;103534;-77
2021/06/13 05:03:46;;;;;;;5.43;2.45;;;;;;;15.05;66.46;99973.84;153983;1096;103100;-77
2021/06/13 05:06:51;;;;;;;8.60;2.98;;;;;;;15.06;66.35;99972.80;154033;1101;103249;-77
2021/06/13 05:09:56;;;;;;;5.00;2.68;;;;;;;14.90;65.84;99981.92;154144;1097;103240;-77
2021/06/13 05:13:01;;;;;;;7.20;2.97;;;;;;;14.66;67.14;99990.27;154340;1101;103265;-77
2021/06/13 05:16:07;;;;;;;7.73;2.77;;;;;;;14.63;67.22;99991.49;154118;1101;103094;-77
2021/06/13 05:19:12;;;;;;;8.03;2.63;;;;;;;14.58;67.72;99987.70;154252;1101;103224;-77
2021/06/13 05:22:17;;;;;;;5.28;2.20;;;;;;;14.64;66.76;99992.31;154216;1101;103795;-77
2021/06/13 05:25:23;;;;;;;5.13;2.37;;;;;;;14.66;66.69;99999.16;154186;1101;103200;-77
2021/06/13 05:28:29;;;;;;;7.43;2.88;;;;;;;14.76;66.92;99990.84;153990;1096;103129;-77
2021/06/13 05:31:34;;;;;;;8.45;2.60;;;;;;;14.97;66.80;99989.22;154031;1097;103247;-77
2021/06/13 05:34:39;;;;;;;4.25;2.50;;;;;;;14.91;65.32;99998.86;153981;1101;103224;-77
2021/06/13 05:37:44;;;;;;;9.93;3.50;;;;;;;14.87;65.05;100011.83;153999;1101;103231;-77
2021/06/13 05:40:50;;;;;;;3.50;2.48;;;;;;;14.86;65.66;100017.41;154024;1097;103234;-76
2021/06/13 05:43:55;;;;;;;6.60;3.83;;;;;;;14.79;65.84;100022.68;153993;1096;103110;-77
2021/06/13 05:47:00;;;;;;;7.05;2.70;;;;;;;14.71;66.26;100025.47;153983;1101;103494;-77
2021/06/13 05:50:07;;;;;;;7.27;3.50;;;;;;;14.70;66.44;100032.70;154228;1095;103230;-77
2021/06/13 05:53:12;;;;;;;7.25;3.20;;;;;;;14.76;66.07;100024.91;154086;1101;103264;-77
2021/06/13 05:56:17;;;;;;;5.70;2.35;;;;;;;14.86;65.49;100041.59;154139;1101;103213;-75
2021/06/13 05:59:22;;;;;;;6.73;3.83;;;;;;;14.88;64.35;100034.17;154227;1101;103117;-77
2021/06/13 06:02:27;;;;;;;10.48;4.25;;;;;;;14.99;64.54;100033.70;154173;1101;103170;-77
2021/06/13 06:05:33;;;;;;;9.40;4.90;;;;;;;14.98;65.66;100029.34;154195;1101;103099;-77
2021/06/13 06:08:38;;;;;;;8.67;4.20;;;;;;;14.94;65.68;100038.80;154404;1101;103191;-77
2021/06/13 06:11:43;;;;;;;7.20;3.30;;;;;;;14.96;65.07;100044.81;154324;1101;103493;-77
2021/06/13 06:14:48;;;;;;;9.80;3.40;;;;;;;14.90;65.59;100046.39;154170;1095;103048;-77
2021/06/13 06:17:53;;;;;;;5.93;2.70;;;;;;;14.83;64.81;100044.64;154103;1095;103195;-77
2021/06/13 06:20:58;;;;;;;5.47;2.90;;;;;;;14.78;65.10;100045.20;154107;1096;103200;-77
2021/06/13 06:24:03;;;;;;;5.17;2.70;;;;;;;14.87;64.68;100053.98;154010;1101;104003;-77
2021/06/13 06:27:09;;;;;;;7.30;2.47;;;;;;;15.07;65.80;100062.33;154046;1101;103129;-77
2021/06/13 06:30:16;;;;;;;8.60;2.80;;;;;;;15.24;64.82;100057.55;154002;1101;103132;-77
2021/06/13 06:33:21;;;;;;;7.43;2.77;;;;;;;15.35;65.41;100059.75;154011;1101;103125;-78
2021/06/13 06:36:26;;;;;;;6.33;3.05;;;;;;;15.49;64.78;100055.36;154028;1097;103093;-77
2021/06/13 06:39:31;;;;;;;11.67;4.30;;;;;;;15.43;64.09;100050.74;154004;1101;103214;-77
2021/06/13 06:42:37;;;;;;;7.25;3.68;;;;;;;15.54;64.20;100052.11;154060;1101;103194;-78
2021/06/13 06:45:42;;;;;;;8.53;3.10;;;;;;;15.66;64.70;100055.95;153985;1096;103133;-77
2021/06/13 06:48:47;;;;;;;8.33;2.75;;;;;;;15.72;62.30;100060.56;154001;1097;103209;-77
2021/06/13 06:51:52;;;;;;;9.48;3.40;;;;;;;15.59;62.63;100053.21;154155;1095;103227;-76
2021/06/13 06:54:58;;;;;;;7.13;2.60;;;;;;;15.55;63.62;100049.24;154081;1096;103148;-76
2021/06/13 06:58:04;;;;;;;7.93;3.63;;;;;;;15.55;63.63;100068.06;154086;1101;103139;-77
2021/06/13 07:01:09;;;;;;;8.60;3.60;;;;;;;15.42;62.52;100073.30;154029;1097;103219;-77
2021/06/13 07:04:14;;;;;;;7.63;3.23;;;;;;;15.39;62.16;100073.66;154045;1094;103142;-77
2021/06/13 07:07:19;;;;;;;9.07;2.70;;;;;;;15.42;62.65;100059.84;154041;1095;103107;-77
2021/06/13 07:10:24;;;;;;;10.20;3.37;;;;;;;15.64;61.80;100066.07;153987;1095;103352;-77
2021/06/13 07:13:29;;;;;;;5.93;2.90;;;;;;;15.82;62.46;100071.89;154043;1101;103146;-76
2021/06/13 07:16:34;;;;;;;11.03;5.60;;;;;;;15.90;61.30;100079.83;154011;1101;103218;-76
2021/06/13 07:19:39;;;;;;;10.57;6.67;;;;;;;15.82;61.24;100079.11;154014;1097;103221;-76
2021/06/13 07:22:45;;;;;;;11.98;6.75;;;;;;;15.79;60.79;100082.20;154009;1097;103104;-77
2021/06/13 07:25:50;;;;;;;11.23;6.15;;;;;;;15.83;61.41;100094.24;153996;1097;103132;-76
2021/06/13 07:28:55;;;;;;;8.60;3.23;;;;;;;15.83;60.28;100086.17;154075;1101;103704;-77
2021/06/13 07:32:01;;;;;;;16.77;6.77;;;;;;;15.78;60.22;100086.75;154072;1096;103145;-76
2021/06/13 07:35:08;;;;;;;15.18;8.63;;;;;;;15.77;61.24;100100.39;154019;1096;103139;-76
2021/06/13 07:38:13;;;;;;;6.67;4.00;;;;;;;15.77;61.32;100079.70;154083;1097;103126;-77
2021/06/13 07:41:18;;;;;;;8.18;5.03;;;;;;;15.89;60.84;100093.47;154093;1095;103263;-76
2021/06/13 07:44:23;;;;;;;12.33;6.38;;;;;;;16.06;61.51;100094.88;154141;1097;103173;-77
2021/06/13 07:47:30;;;;;;;12.80;6.25;;;;;;;15.99;59.25;100107.43;154079;1101;103071;-76
2021/06/13 07:50:35;;;;;;;9.33;4.53;;;;;;;15.88;60.17;100108.78;154153;1101;103115;-77
2021/06/13 07:53:43;;;;;;;13.03;5.77;;;;;;;15.91;60.82;100104.88;154067;1101;103202;-77
2021/06/13 07:56:49;;;;;;;10.03;3.85;;;;;;;16.09;61.50;100099.06;153982;1101;103187;-77
2021/06/13 07:59:54;;;;;;;9.43;5.40;;;;;;;16.20;61.47;100103.08;154019;1096;103514;-76
2021/06/13 08:02:59;;;;;;;6.93;2.90;;;;;;;16.24;60.81;100107.89;154007;1097;103483;-77
2021/06/13 08:06:04;;;;;;;13.05;6.95;;;;;;;16.36;60.73;100127.05;154046;1101;103250;-76
2021/06/13 08:09:09;;;;;;;8.20;3.30;;;;;;;16.37;59.71;100112.54;154082;1101;103133;-76
2021/06/13 08:12:15;;;;;;;6.87;3.87;;;;;;;16.54;60.70;100112.27;154030;1095;103298;-76
2021/06/13 08:15:21;;;;;;;6.58;3.63;;;;;;;16.65;60.93;100109.04;154012;1096;103154;-76
2021/06/13 08:18:26;;;;;;;8.75;2.75;;;;;;;16.60;60.11;100116.88;154029;1094;103132;-77
2021/06/13 08:21:31;;;;;;;6.93;3.83;;;;;;;16.37;59.39;100117.92;153989;1101;103221;-77
2021/06/13 08:24:36;;;;;;;8.97;4.13;;;;;;;16.40;60.13;100112.16;154067;1101;103132;-78
2021/06/13 08:27:41;;;;;;;6.50;2.90;;;;;;;16.51;60.43;100118.03;154022;1097;103189;-76
2021/06/13 08:30:47;;;;;;;7.60;3.17;;;;;;;16.48;59.78;100136.25;154068;1101;103151;-77
2021/06/13 08:33:52;;;;;;;7.83;3.10;;;;;;;16.16;59.66;100131.41;154089;1097;103125;-77
2021/06/13 08:36:58;;;;;;;8.25;3.10;;;;;;;16.22;60.84;100144.09;154020;1101;103104;-77
2021/06/13 08:40:04;;;;;;;7.50;3.00;;;;;;;16.28;59.31;100148.70;154112;1097;103196;-77
2021/06/13 08:43:09;;;;;;;5.45;3.10;;;;;;;16.39;59.60;100148.19;154041;1097;103270;-76
2021/06/13 08:46:15;;;;;;;5.68;3.00;;;;;;;16.36;59.94;100147.73;154016;1101;103106;-77
2021/06/13 08:49:23;;;;;;;8.28;3.20;;;;;;;16.47;60.50;100147.22;154070;1097;103150;-76
2021/06/13 08:52:28;;;;;;;8.33;2.80;;;;;;;16.47;58.70;100148.07;154014;1101;103100;-77
2021/06/13 08:55:34;;;;;;;8.63;3.00;;;;;;;16.33;60.15;100175.06;154028;1101;103194;-76
2021/06/13 08:58:39;;;;;;;7.47;3.47;;;;;;;16.28;59.39;100159.47;154068;1101;103203;-77
2021/06/13 09:01:44;;;;;;;8.60;3.50;;;;;;;16.47;59.11;100161.53;154069;1101;103200;-76
2021/06/13 09:04:50;;;;;;;5.37;3.20;;;;;;;16.65;58.90;100161.05;153985;1101;103116;-77
2021/06/13 09:07:58;;;;;;;7.33;2.70;;;;;;;16.59;57.43;100169.06;154003;1096;103183;-77
2021/06/13 09:11:03;;;;;;;8.07;3.30;;;;;;;16.73;57.80;100175.41;154062;1101;103119;-76
2021/06/13 09:14:15;;;;;;;6.50;2.95;;;;;;;16.81;57.31;100181.48;154152;1101;103199;-77
2021/06/13 09:17:24;;;;;;;4.80;2.73;;;;;;;17.00;57.43;100181.86;154152;1097;103190;-77
2021/06/13 09:20:30;;;;;;;6.00;2.88;;;;;;;17.08;55.45;100179.83;154003;1096;103122;-77
2021/06/13 09:23:37;;;;;;;7.68;2.98;;;;;;;17.29;56.49;100193.45;153987;1101;103130;-76
2021/06/13 09:26:42;;;;;;;5.93;3.13;;;;;;;17.31;57.32;100188.69;154053;1101;103198;-77
2021/06/13 09:29:54;;;;;;;9.23;3.50;;;;;;;17.28;55.50;100211.47;154048;1101;103370;-77
2021/06/13 09:33:09;;;;;;;6.28;2.95;;;;;;;17.21;56.94;100195.27;154037;1101;103150;-76
2021/06/13 09:36:19;;;;;;;6.70;2.90;;;;;;;17.43;57.24;100182.52;154020;1095;103195;-76
2021/06/13 09:39:28;;;;;;;5.87;2.77;;;;;;;17.75;57.24;100187.45;154007;1101;103183;-76
2021/06/13 09:42:37;;;;;;;7.10;3.07;;;;;;;17.90;55.57;100190.86;153953;1101;103129;-76
2021/06/13 09:45:45;;;;;;;8.38;2.78;;;;;;;17.85;54.81;100201.42;154006;1101;103228;-77
2021/06/13 09:48:52;;;;;;;6.55;3.15;;;;;;;17.74;55.27;100199.27;154025;1101;103554;-75
2021/06/13 09:52:05;;;;;;;7.45;3.20;;;;;;;17.91;55.79;100206.00;154021;1101;103117;-76
2021/06/13 09:55:18;;;;;;;7.33;2.80;;;;;;;18.16;54.99;100200.06;153971;1101;103110;-76
2021/06/13 09:58:23;;;;;;;6.93;2.83;;;;;;;18.03;53.71;100203.55;154116;1101;103520;-77
2021/06/13 10:01:32;;;;;;;6.83;2.80;;;;;;;17.83;53.74;100220.48;154021;1101;103217;-77
2021/06/13 10:04:40;;;;;;;7.80;2.90;;;;;;;17.81;53.97;100227.13;154053;1094;103132;-76
2021/06/13 10:07:46;;;;;;;8.55;3.30;;;;;;;17.80;55.60;100222.74;154050;1101;103101;-77
2021/06/13 10:10:54;;;;;;;7.03;3.00;;;;;;;18.22;56.05;100207.34;154013;1101;103128;-77
2021/06/13 10:14:01;;;;;;;6.67;3.40;;;;;;;18.32;53.56;100212.34;153994;1101;103207;-78
2021/06/13 10:17:06;;;;;;;8.17;3.53;;;;;;;18.24;55.43;100213.36;154108;1101;103195;-76
2021/06/13 10:20:26;;;;;;;10.73;5.60;;;;;;;18.17;54.66;100226.87;154016;1096;103238;-76
2021/06/13 10:23:31;;;;;;;7.13;3.00;;;;;;;18.15;54.75;100231.64;154079;1101;103119;-76
2021/06/13 10:26:38;;;;;;;10.40;5.20;;;;;;;18.10;53.77;100230.58;153984;1101;103194;-76
2021/06/13 10:29:45;;;;;;;7.70;3.00;;;;;;;18.08;54.20;100233.48;154092;1095;103206;-78
2021/06/13 10:32:51;;;;;;;8.83;4.90;;;;;;;18.19;52.92;100238.30;154041;1101;103376;-77
2021/06/13 10:36:00;;;;;;;6.48;3.48;;;;;;;18.27;52.63;100231.88;154026;1097;103133;-77
2021/06/13 10:39:08;;;;;;;9.47;4.23;;;;;;;18.09;54.02;100231.61;154048;1096;103557;-76
2021/06/13 10:42:14;;;;;;;9.13;3.40;;;;;;;18.12;54.75;100233.91;154061;1101;103141;-76
2021/06/13 10:45:20;;;;;;;5.67;2.70;;;;;;;18.15;54.25;100225.38;154058;1101;103212;-77
2021/06/13 10:48:38;;;;;;;7.08;3.73;;;;;;;18.17;54.34;100231.44;154018;1097;103294;-76
2021/06/13 10:51:45;;;;;;;4.75;2.63;;;;;;;18.47;54.04;100233.78;154126;1096;103251;-76
2021/06/13 10:55:00;;;;;;;6.20;2.90;;;;;;;18.43;53.41;100231.48;154072;1101;103127;-76
2021/06/13 10:58:05;;;;;;;7.45;3.25;;;;;;;18.38;51.63;100239.38;154205;1101;103141;-77
2021/06/13 11:01:27;;;;;;;7.60;3.13;;;;;;;18.47;53.50;100247.29;154076;1101;103253;-77
2021/06/13 11:04:47;;;;;;;7.87;3.23;;;;;;;18.30;52.09;100255.76;154042;1101;103216;-77
2021/06/13 11:07:59;;;;;;;5.30;2.70;;;;;;;18.19;52.75;100259.91;154048;1097;103224;-77
2021/06/13 11:11:37;;;;;;;4.63;2.60;;;;;;;18.02;53.38;100266.70;154053;1101;103202;-77
2021/06/13 11:14:55;;;;;;;8.03;3.30;;;;;;;18.11;53.48;100275.44;154011;1101;103192;-77
2021/06/13 11:18:01;;;;;;;5.60;2.45;;;;;;;18.23;54.02;100269.26;154059;1101;103557;-78
2021/06/13 11:21:22;;;;;;;6.55;3.40;;;;;;;18.37;53.91;100280.11;154016;1101;103273;-77
2021/06/13 11:24:47;;;;;;;6.60;2.50;;;;;;;18.56;53.92;100262.28;154101;1101;103225;-76
2021/06/13 11:28:10;;;;;;;5.17;2.50;;;;;;;18.85;52.29;100265.67;153974;1101;103196;-76
2021/06/13 11:31:24;;;;;;;4.98;2.30;;;;;;;18.93;52.34;100266.28;154000;1097;103129;-77
2021/06/13 11:34:46;;;;;;;4.87;2.80;;;;;;;18.85;52.20;100262.97;154077;1095;103145;-77
2021/06/13 11:38:13;;;;;;;10.33;2.70;;;;;;;18.75;51.75;100266.88;154094;1101;103509;-77
2021/06/13 11:41:28;;;;;;;7.47;3.20;;;;;;;19.03;53.30;100263.16;154096;1101;103122;-76
2021/06/13 11:44:54;;;;;;;6.23;3.30;;;;;;;19.18;51.91;100255.66;154119;1101;103146;-76
2021/06/13 11:48:19;;;;;;;6.13;3.60;;;;;;;19.46;51.37;100262.72;154022;1101;103119;-77
2021/06/13 11:51:25;;;;;;;6.23;2.90;;;;;;;19.41;50.04;100259.80;154071;1101;103202;-77
2021/06/13 11:54:34;;;;;;;5.00;2.50;;;;;;;19.28;50.95;100260.64;154112;1101;103323;-77
2021/06/13 11:57:39;;;;;;;5.58;2.20;;;;;;;19.05;49.86;100252.14;154083;1101;103194;-77
2021/06/13 12:00:44;;;;;;;7.50;2.60;;;;;;;18.86;51.26;100261.91;154029;1101;103506;-76
2021/06/13 12:03:49;;;;;;;5.40;2.60;;;;;;;18.80;50.87;100280.64;154000;1095;103132;-76
2021/06/13 12:06:56;;;;;;;7.27;2.23;;;;;;;18.74;51.86;100270.60;154099;1101;103129;-77
2021/06/13 12:10:01;;;;;;;5.77;2.30;;;;;;;18.72;51.52;100278.09;154229;1101;103184;-76
2021/06/13 12:13:11;;;;;;;5.13;2.20;;;;;;;18.60;51.49;100271.63;154220;1101;103131;-75
2021/06/13 12:16:20;;;;;;;5.65;3.10;;;;;;;18.34;51.35;100267.84;154148;1096;103123;-76
2021/06/13 12:19:32;;;;;;;8.17;3.10;;;;;;;18.17;52.67;100291.68;154059;1097;103190;-76
2021/06/13 12:22:42;;;;;;;6.65;2.70;;;;;;;18.12;55.09;100298.72;154100;1101;103221;-76
2021/06/13 12:29:21;;;;;;;5.77;2.30;;;;;;;17.94;54.45;100281.20;154021;1096;103131;-76
2021/06/13 12:32:27;;;;;;;4.63;2.40;;;;;;;18.04;54.42;100276.25;154116;1097;103196;-76
2021/06/13 12:35:33;;;;;;;6.70;2.60;;;;;;;17.92;53.67;100294.06;154029;1101;103187;-75
2021/06/13 12:38:39;;;;;;;6.80;2.40;;;;;;;17.94;54.25;100275.80;154115;1101;103132;-76
2021/06/13 12:41:44;;;;;;;7.07;2.80;;;;;;;17.96;55.80;100294.50;154013;1101;103605;-76
2021/06/13 12:44:58;;;;;;;5.53;2.73;;;;;;;17.77;56.50;100290.64;154072;1101;103155;-76
2021/06/13 12:48:06;;;;;;;8.03;2.65;;;;;;;17.68;56.11;100300.75;153992;1101;103200;-76
2021/06/13 12:51:12;;;;;;;5.90;2.48;;;;;;;17.72;55.99;100301.19;154032;1096;103219;-76
2021/06/13 12:54:18;;;;;;;4.13;2.00;;;;;;;17.68;57.13;100295.34;154051;1101;103200;-76
2021/06/13 12:57:23;;;;;;;5.93;2.40;;;;;;;17.54;56.76;100301.70;154061;1101;103276;-76
2021/06/13 13:00:29;;;;;;;5.15;2.48;;;;;;;17.56;56.72;100292.38;154104;1101;103195;-77
2021/06/13 13:03:43;;;;;;;5.07;2.43;;;;;;;17.69;57.64;100291.63;154060;1101;103114;-77
2021/06/13 13:06:51;;;;;;;6.48;2.43;;;;;;;17.84;56.93;100294.21;154054;1095;103123;-77
2021/06/13 13:10:11;;;;;;;5.25;2.18;;;;;;;17.78;56.42;100306.63;154075;1094;103127;-76
2021/06/13 13:13:26;;;;;;;6.97;2.77;;;;;;;17.58;56.54;100300.28;154241;1101;103218;-76
2021/06/13 13:16:34;;;;;;;4.90;2.30;;;;;;;17.42;56.54;100304.95;154062;1101;103129;-77
2021/06/13 13:19:41;;;;;;;5.30;2.13;;;;;;;17.35;57.38;100298.66;154049;1096;103115;-76
2021/06/13 13:22:47;;;;;;;6.65;3.45;;;;;;;17.35;57.36;100298.66;153943;1097;103222;-76
2021/06/13 13:25:55;;;;;;;6.80;3.80;;;;;;;17.32;57.32;100300.91;153937;1101;103279;-76
2021/06/13 13:29:00;;;;;;;6.08;3.23;;;;;;;17.13;57.91;100295.19;153984;1096;103346;-76
2021/06/13 13:32:06;;;;;;;6.68;3.00;;;;;;;17.01;59.23;100296.73;153983;1096;103145;-76
2021/06/13 13:35:12;;;;;;;4.50;2.50;;;;;;;17.13;58.58;100297.89;153992;1101;103197;-76
2021/06/13 13:38:19;;;;;;;7.80;2.75;;;;;;;17.35;57.95;100303.23;153936;1101;103099;-76
2021/06/13 13:41:36;;;;;;;4.63;2.30;;;;;;;17.51;56.87;100294.82;153964;1101;103288;-76
2021/06/13 13:44:42;;;;;;;6.93;2.55;;;;;;;17.74;57.49;100308.04;153965;1096;103279;-76
2021/06/13 13:47:47;;;;;;;7.17;2.27;;;;;;;17.89;56.77;100286.36;153984;1101;103119;-76
2021/06/13 13:50:59;;;;;;;5.20;2.30;;;;;;;18.14;56.60;100277.75;153932;1097;103192;-76
2021/06/13 13:54:04;;;;;;;5.58;2.50;;;;;;;18.53;56.01;100284.30;153930;1101;103160;-76
2021/06/13 13:57:12;;;;;;;4.50;2.10;;;;;;;18.90;55.81;100287.48;153982;1095;103128;-77
2021/06/13 14:00:19;;;;;;;4.40;2.20;;;;;;;19.15;55.29;100277.73;153960;1101;103200;-76
2021/06/13 14:03:28;;;;;;;6.28;2.60;;;;;;;19.23;52.39;100280.22;153984;1101;103132;-76
2021/06/13 14:06:33;;;;;;;7.58;3.48;;;;;;;19.13;51.67;100287.94;153977;1096;103165;-76
2021/06/13 14:09:39;;;;;;;4.90;1.83;;;;;;;19.08;53.21;100276.90;153987;1096;103132;-77
2021/06/13 14:12:44;;;;;;;5.00;2.10;;;;;;;19.05;53.12;100293.53;154014;1101;103105;-77
2021/06/13 14:15:50;;;;;;;5.13;2.30;;;;;;;18.99;53.06;100283.55;154097;1101;103310;-77
2021/06/13 14:18:55;;;;;;;4.67;1.97;;;;;;;19.10;52.96;100284.81;154088;1093;103104;-77
2021/06/13 14:22:00;;;;;;;3.17;1.90;;;;;;;19.13;51.34;100287.94;154066;1096;103181;-77